createdAt,value
2018-05-27T00:01:36.729Z,74.26
2018-05-27T00:04:04.349Z,74.57
2018-05-27T00:06:31.950Z,74.42
2018-05-27T00:08:59.672Z,75.33
2018-05-27T00:11:27.278Z,75.03
2018-05-27T00:13:54.922Z,74.80
2018-05-27T00:16:22.602Z,74.95
2018-05-27T00:18:50.293Z,74.99
2018-05-27T00:21:18.084Z,75.16
2018-05-27T00:23:45.704Z,74.35
2018-05-27T00:26:13.307Z,74.11
2018-05-27T00:28:40.947Z,73.87
2018-05-27T00:31:08.549Z,73.47
2018-05-27T00:33:36.219Z,73.16
2018-05-27T00:36:03.845Z,73.13
2018-05-27T00:38:31.584Z,72.98
2018-05-27T00:40:59.210Z,73.94
2018-05-27T00:43:26.809Z,74.07
2018-05-27T00:45:54.683Z,74.37
2018-05-27T00:48:22.288Z,74.13
2018-05-27T00:50:49.920Z,74.39
2018-05-27T00:53:17.535Z,75.48
2018-05-27T00:55:45.186Z,75.86
2018-05-27T00:58:12.780Z,76.00
2018-05-27T01:00:40.403Z,76.18
2018-05-27T01:03:08.054Z,77.18
2018-05-27T01:05:35.661Z,77.03
2018-05-27T01:08:03.313Z,76.72
2018-05-27T01:10:31.070Z,76.72
2018-05-27T01:12:58.713Z,76.67
2018-05-27T01:15:26.323Z,76.55
2018-05-27T01:17:54.102Z,76.49
2018-05-27T01:20:21.698Z,76.25
2018-05-27T01:22:49.315Z,75.99
2018-05-27T01:25:16.931Z,76.28
2018-05-27T01:27:44.540Z,75.97
2018-05-27T01:30:12.221Z,75.85
2018-05-27T01:32:39.826Z,76.19
2018-05-27T01:35:07.553Z,76.00
2018-05-27T01:37:35.151Z,75.99
2018-05-27T01:40:02.754Z,76.08
2018-05-27T01:42:30.401Z,75.84
2018-05-27T01:44:58.006Z,75.44
2018-05-27T01:47:25.632Z,75.41
2018-05-27T01:49:53.252Z,75.77
2018-05-27T01:52:20.887Z,76.02
2018-05-27T01:54:48.495Z,75.99
2018-05-27T01:57:16.090Z,76.06
2018-05-27T01:59:43.726Z,76.07
2018-05-27T02:02:11.335Z,76.20
2018-05-27T02:04:38.990Z,76.26
2018-05-27T02:07:06.587Z,76.24
2018-05-27T02:09:34.193Z,76.00
2018-05-27T02:12:01.811Z,75.80
2018-05-27T02:14:29.403Z,75.74
2018-05-27T02:16:57.047Z,75.59
2018-05-27T02:19:24.649Z,75.54
2018-05-27T02:21:52.255Z,75.39
2018-05-27T02:24:19.965Z,75.54
2018-05-27T02:26:47.570Z,76.08
2018-05-27T02:29:15.203Z,76.43
2018-05-27T02:31:42.799Z,76.23
2018-05-27T02:34:10.406Z,75.91
2018-05-27T02:36:38.026Z,76.02
2018-05-27T02:39:06.514Z,76.09
2018-05-27T02:41:34.128Z,76.05
2018-05-27T02:44:01.746Z,76.23
2018-05-27T02:46:29.372Z,76.10
2018-05-27T02:48:56.976Z,76.16
2018-05-27T02:51:24.581Z,75.81
2018-05-27T02:53:52.209Z,75.93
2018-05-27T02:56:19.814Z,76.00
2018-05-27T02:58:47.459Z,76.45
2018-05-27T03:01:15.067Z,76.30
2018-05-27T03:03:42.717Z,76.07
2018-05-27T03:06:10.332Z,76.24
2018-05-27T03:08:37.944Z,76.47
2018-05-27T03:11:05.586Z,76.52
2018-05-27T03:13:33.194Z,76.85
2018-05-27T03:16:00.829Z,76.91
2018-05-27T03:18:28.439Z,76.95
2018-05-27T03:20:56.095Z,77.22
2018-05-27T03:23:23.685Z,76.93
2018-05-27T03:25:51.289Z,76.74
2018-05-27T03:28:18.909Z,76.96
2018-05-27T03:30:46.514Z,77.13
2018-05-27T03:33:14.135Z,77.18
2018-05-27T03:35:41.803Z,77.19
2018-05-27T03:38:09.435Z,77.13
2018-05-27T03:40:37.041Z,77.21
2018-05-27T03:43:04.646Z,76.67
2018-05-27T03:45:32.262Z,76.57
2018-05-27T03:47:59.850Z,76.84
2018-05-27T03:50:27.486Z,76.76
2018-05-27T03:52:55.093Z,76.90
2018-05-27T03:55:22.823Z,76.92
2018-05-27T03:57:50.424Z,77.31
2018-05-27T04:00:19.679Z,77.47
2018-05-27T04:02:47.324Z,77.62
2018-05-27T04:08:34.854Z,77.46
2018-05-27T04:11:02.459Z,76.60
2018-05-27T04:13:30.096Z,76.78
2018-05-27T04:15:57.707Z,76.32
2018-05-27T04:18:25.719Z,76.20
2018-05-27T04:20:53.312Z,76.28
2018-05-27T04:23:20.919Z,76.24
2018-05-27T04:25:48.543Z,76.32
2018-05-27T04:28:16.154Z,75.83
2018-05-27T04:30:43.898Z,75.72
2018-05-27T04:33:11.514Z,75.84
2018-05-27T04:35:39.294Z,75.89
2018-05-27T04:38:06.910Z,75.53
2018-05-27T04:40:34.526Z,74.79
2018-05-27T04:43:02.152Z,74.64
2018-05-27T04:45:29.780Z,74.29
2018-05-27T04:47:57.489Z,74.12
2018-05-27T04:50:25.085Z,74.03
2018-05-27T04:52:52.727Z,73.73
2018-05-27T04:55:20.318Z,73.75
2018-05-27T04:57:47.926Z,73.70
2018-05-27T05:00:15.557Z,73.49
2018-05-27T05:02:43.172Z,73.18
2018-05-27T05:05:10.806Z,72.84
2018-05-27T05:07:38.397Z,73.07
2018-05-27T05:10:06.100Z,72.85
2018-05-27T05:12:33.708Z,73.04
2018-05-27T05:15:01.310Z,72.23
2018-05-27T05:17:28.939Z,71.02
2018-05-27T05:19:56.535Z,70.61
2018-05-27T05:22:24.171Z,70.53
2018-05-27T05:24:51.788Z,70.20
2018-05-27T05:27:19.416Z,69.94
2018-05-27T05:29:47.056Z,70.36
2018-05-27T05:32:14.661Z,70.58
2018-05-27T05:34:42.285Z,70.02
2018-05-27T05:37:09.879Z,70.04
2018-05-27T05:39:37.507Z,70.15
2018-05-27T05:42:05.121Z,70.32
2018-05-27T05:44:32.767Z,70.18
2018-05-27T05:47:00.354Z,70.16
2018-05-27T05:49:27.965Z,70.31
2018-05-27T05:51:55.591Z,69.86
2018-05-27T05:54:23.191Z,69.32
2018-05-27T05:56:50.865Z,69.74
2018-05-27T05:59:18.462Z,69.60
2018-05-27T06:01:46.095Z,68.94
2018-05-27T06:04:13.709Z,68.42
2018-05-27T06:06:41.301Z,68.14
2018-05-27T06:09:08.921Z,67.82
2018-05-27T06:11:36.530Z,67.44
2018-05-27T06:14:04.156Z,67.25
2018-05-27T06:16:31.758Z,66.82
2018-05-27T06:18:59.408Z,66.33
2018-05-27T06:21:26.997Z,65.97
2018-05-27T06:23:54.592Z,65.71
2018-05-27T06:26:22.235Z,65.74
2018-05-27T06:28:49.848Z,65.53
2018-05-27T06:31:17.478Z,65.42
2018-05-27T06:33:45.291Z,65.61
2018-05-27T06:36:13.067Z,64.91
2018-05-27T06:38:41.043Z,64.40
2018-05-27T06:41:08.639Z,64.23
2018-05-27T06:43:36.258Z,63.89
2018-05-27T06:46:03.878Z,63.88
2018-05-27T06:48:31.581Z,64.07
2018-05-27T06:50:59.182Z,63.38
2018-05-27T06:53:26.929Z,63.12
2018-05-27T06:55:54.530Z,62.97
2018-05-27T06:58:22.129Z,62.92
2018-05-27T07:00:49.744Z,62.33
2018-05-27T07:03:17.353Z,62.53
2018-05-27T07:05:44.970Z,62.73
2018-05-27T07:08:12.574Z,62.42
2018-05-27T07:10:40.423Z,61.51
2018-05-27T07:13:08.030Z,61.80
2018-05-27T07:15:35.629Z,61.21
2018-05-27T07:18:03.258Z,61.15
2018-05-27T07:20:30.846Z,61.22
2018-05-27T07:22:58.484Z,61.10
2018-05-27T07:25:26.104Z,60.80
2018-05-27T07:27:53.872Z,60.17
2018-05-27T07:30:21.475Z,59.89
2018-05-27T07:32:49.090Z,59.46
2018-05-27T07:35:16.702Z,59.51
2018-05-27T07:37:44.305Z,60.39
2018-05-27T07:40:12.031Z,59.82
2018-05-27T07:42:39.637Z,59.92
2018-05-27T07:45:07.293Z,59.48
2018-05-27T07:47:34.927Z,59.91
2018-05-27T07:50:02.532Z,58.93
2018-05-27T07:52:30.203Z,58.84
2018-05-27T07:54:57.814Z,60.05
2018-05-27T07:57:25.445Z,60.42
2018-05-27T07:59:53.039Z,58.70
2018-05-27T08:02:20.678Z,58.78
2018-05-27T08:04:48.279Z,58.90
2018-05-27T08:07:15.882Z,57.72
2018-05-27T08:09:43.515Z,58.28
2018-05-27T08:12:11.132Z,57.26
2018-05-27T08:14:38.766Z,56.94
2018-05-27T08:17:06.358Z,57.59
2018-05-27T08:19:33.989Z,57.05
2018-05-27T08:22:01.745Z,55.43
2018-05-27T08:24:29.347Z,54.73
2018-05-27T08:26:57.006Z,55.28
2018-05-27T08:29:24.606Z,55.63
2018-05-27T08:31:52.236Z,55.28
2018-05-27T08:34:19.834Z,55.59
2018-05-27T08:36:48.003Z,54.89
2018-05-27T08:39:15.613Z,54.49
2018-05-27T08:41:43.223Z,54.28
2018-05-27T08:44:10.833Z,55.38
2018-05-27T08:46:38.520Z,54.53
2018-05-27T08:49:06.170Z,54.03
2018-05-27T08:51:33.763Z,55.26
2018-05-27T08:54:01.377Z,54.70
2018-05-27T08:56:28.997Z,54.76
2018-05-27T08:58:56.605Z,54.04
2018-05-27T09:01:24.678Z,52.13
2018-05-27T09:03:52.251Z,52.51
2018-05-27T09:06:19.863Z,54.16
2018-05-27T09:08:47.486Z,53.18
2018-05-27T09:11:15.103Z,53.36
2018-05-27T09:13:42.770Z,51.12
2018-05-27T09:16:10.359Z,50.51
2018-05-27T09:18:38.164Z,50.16
2018-05-27T09:21:05.754Z,50.44
2018-05-27T09:23:33.367Z,49.52
2018-05-27T09:26:00.982Z,49.82
2018-05-27T09:28:28.616Z,48.58
2018-05-27T09:30:56.258Z,49.40
2018-05-27T09:33:23.851Z,49.90
2018-05-27T09:35:51.468Z,48.19
2018-05-27T09:38:19.074Z,48.66
2018-05-27T09:40:46.671Z,48.92
2018-05-27T09:43:14.286Z,49.91
2018-05-27T09:45:41.891Z,50.23
2018-05-27T09:48:09.509Z,50.07
2018-05-27T09:50:37.111Z,49.87
2018-05-27T09:53:04.728Z,49.42
2018-05-27T09:55:32.397Z,51.17
2018-05-27T09:58:00.047Z,51.91
2018-05-27T10:00:27.651Z,51.95
2018-05-27T10:02:55.259Z,53.71
2018-05-27T10:05:22.914Z,53.88
2018-05-27T10:07:50.522Z,54.60
2018-05-27T10:10:18.136Z,55.58
2018-05-27T10:12:45.798Z,55.22
2018-05-27T10:15:13.398Z,54.70
2018-05-27T10:17:41.025Z,54.01
2018-05-27T10:20:08.634Z,54.65
2018-05-27T10:22:36.253Z,54.09
2018-05-27T10:25:03.876Z,53.81
2018-05-27T10:27:31.542Z,54.07
2018-05-27T10:29:59.149Z,54.46
2018-05-27T10:32:26.781Z,53.04
2018-05-27T10:34:54.416Z,53.85
2018-05-27T10:37:22.032Z,53.69
2018-05-27T10:39:49.672Z,52.37
2018-05-27T10:42:17.269Z,52.65
2018-05-27T10:44:45.118Z,51.85
2018-05-27T10:47:12.722Z,52.55
2018-05-27T10:49:40.320Z,52.39
2018-05-27T10:52:07.970Z,51.54
2018-05-27T10:54:35.538Z,51.69
2018-05-27T10:57:03.161Z,53.52
2018-05-27T10:59:30.762Z,51.26
2018-05-27T11:01:58.649Z,50.50
2018-05-27T11:04:26.290Z,50.63
2018-05-27T11:06:53.878Z,51.02
2018-05-27T11:09:21.708Z,49.88
2018-05-27T11:11:49.311Z,51.37
2018-05-27T11:14:17.027Z,51.60
2018-05-27T11:16:44.694Z,49.21
2018-05-27T11:19:12.315Z,49.42
2018-05-27T11:21:40.293Z,49.06
2018-05-27T11:24:08.235Z,47.99
2018-05-27T11:26:35.835Z,47.69
2018-05-27T11:29:03.426Z,47.80
2018-05-27T11:31:31.066Z,47.93
2018-05-27T11:33:58.680Z,48.19
2018-05-27T11:36:26.330Z,48.77
2018-05-27T11:38:53.934Z,47.54
2018-05-27T11:41:22.084Z,47.14
2018-05-27T11:43:49.683Z,46.16
2018-05-27T11:46:17.281Z,46.88
2018-05-27T11:48:44.910Z,47.76
2018-05-27T11:51:12.520Z,44.96
2018-05-27T11:53:40.151Z,45.03
2018-05-27T11:56:07.756Z,45.21
2018-05-27T11:58:35.377Z,45.93
2018-05-27T12:01:02.997Z,42.92
2018-05-27T12:03:30.616Z,43.78
2018-05-27T12:05:58.248Z,42.32
2018-05-27T12:08:26.125Z,43.74
2018-05-27T12:10:53.717Z,42.73
2018-05-27T12:13:21.311Z,43.73
2018-05-27T12:15:48.936Z,43.16
2018-05-27T12:18:16.522Z,41.77
2018-05-27T12:20:44.139Z,41.31
2018-05-27T12:23:11.738Z,43.08
2018-05-27T12:25:39.391Z,41.65
2018-05-27T12:28:07.021Z,42.13
2018-05-27T12:30:34.762Z,42.09
2018-05-27T12:33:02.408Z,42.28
2018-05-27T12:35:30.168Z,42.97
2018-05-27T12:37:57.777Z,42.80
2018-05-27T12:40:25.664Z,42.07
2018-05-27T12:42:53.778Z,42.44
2018-05-27T12:45:21.501Z,41.09
2018-05-27T12:47:49.163Z,41.19
2018-05-27T12:50:16.781Z,42.75
2018-05-27T12:52:44.450Z,42.61
2018-05-27T12:55:12.038Z,42.84
2018-05-27T12:57:39.910Z,41.27
2018-05-27T13:00:07.506Z,42.65
2018-05-27T13:02:35.642Z,41.17
2018-05-27T13:05:03.281Z,41.25
2018-05-27T13:07:31.878Z,38.77
2018-05-27T13:09:59.536Z,37.68
2018-05-27T13:12:27.135Z,37.45
2018-05-27T13:14:55.591Z,35.08
2018-05-27T13:17:23.194Z,31.72
2018-05-27T13:19:50.785Z,29.63
2018-05-27T13:22:18.445Z,29.35
2018-05-27T13:24:46.045Z,29.09
2018-05-27T13:27:13.667Z,28.53
2018-05-27T13:29:41.277Z,27.46
2018-05-27T13:32:09.090Z,26.91
2018-05-27T13:34:36.681Z,28.42
2018-05-27T13:37:04.288Z,30.98
2018-05-27T13:39:31.915Z,31.17
2018-05-27T13:41:59.506Z,31.35
2018-05-27T13:44:27.115Z,30.41
2018-05-27T13:46:54.729Z,28.44
2018-05-27T13:49:22.743Z,29.38
2018-05-27T13:51:50.338Z,30.09
2018-05-27T13:54:17.949Z,30.64
2018-05-27T13:56:45.635Z,30.69
2018-05-27T13:59:13.242Z,30.70
2018-05-27T14:01:40.925Z,31.09
2018-05-27T14:04:08.527Z,31.83
2018-05-27T14:06:36.151Z,33.53
2018-05-27T14:09:03.771Z,33.25
2018-05-27T14:11:31.939Z,33.20
2018-05-27T14:13:59.549Z,33.33
2018-05-27T14:16:27.142Z,34.18
2018-05-27T14:18:54.831Z,34.28
2018-05-27T14:21:22.467Z,35.53
2018-05-27T14:23:50.098Z,34.65
2018-05-27T14:26:17.698Z,35.99
2018-05-27T14:28:45.473Z,35.66
2018-05-27T14:31:13.080Z,34.76
2018-05-27T14:33:40.678Z,36.51
2018-05-27T14:36:08.430Z,35.75
2018-05-27T14:38:36.020Z,34.41
2018-05-27T14:41:03.685Z,35.42
2018-05-27T14:43:31.287Z,34.30
2018-05-27T14:45:58.925Z,33.60
2018-05-27T14:48:26.520Z,33.19
2018-05-27T14:50:54.171Z,33.72
2018-05-27T14:53:21.777Z,33.45
2018-05-27T14:55:49.401Z,33.87
2018-05-27T14:58:17.027Z,35.38
2018-05-27T15:00:45.290Z,35.07
2018-05-27T15:03:13.027Z,34.94
2018-05-27T15:05:40.642Z,35.42
2018-05-27T15:08:08.397Z,34.61
2018-05-27T15:10:36.023Z,35.12
2018-05-27T15:13:03.665Z,35.49
2018-05-27T15:15:31.287Z,35.29
2018-05-27T15:17:58.898Z,35.90
2018-05-27T15:20:26.544Z,35.56
2018-05-27T15:22:54.142Z,36.91
2018-05-27T15:25:21.790Z,35.95
2018-05-27T15:27:49.403Z,35.47
2018-05-27T15:30:17.035Z,35.57
2018-05-27T15:32:44.714Z,35.49
2018-05-27T15:35:12.392Z,36.24
2018-05-27T15:37:39.988Z,36.24
2018-05-27T15:40:07.605Z,37.53
2018-05-27T15:42:35.357Z,38.02
2018-05-27T15:45:03.337Z,38.42
2018-05-27T15:47:31.159Z,38.64
2018-05-27T15:49:58.803Z,39.07
2018-05-27T15:52:26.471Z,39.04
2018-05-27T15:54:54.170Z,38.28
2018-05-27T15:57:22.001Z,38.95
2018-05-27T15:59:49.688Z,39.10
2018-05-27T16:02:17.267Z,39.79
2018-05-27T16:04:45.028Z,39.99
2018-05-27T16:07:12.638Z,39.79
2018-05-27T16:09:40.255Z,39.69
2018-05-27T16:12:07.887Z,39.47
2018-05-27T16:14:35.658Z,39.62
2018-05-27T16:17:03.308Z,39.75
2018-05-27T16:19:30.995Z,39.83
2018-05-27T16:21:58.604Z,39.46
2018-05-27T16:24:26.230Z,39.53
2018-05-27T16:26:53.849Z,39.61
2018-05-27T16:29:21.519Z,38.33
2018-05-27T16:31:49.130Z,38.54
2018-05-27T16:34:16.746Z,39.19
2018-05-27T16:36:44.374Z,39.02
2018-05-27T16:39:12.079Z,38.96
2018-05-27T16:41:39.705Z,38.88
2018-05-27T16:44:07.326Z,39.10
2018-05-27T16:46:35.114Z,38.82
2018-05-27T16:49:02.708Z,38.41
2018-05-27T16:51:30.513Z,38.30
2018-05-27T16:53:58.146Z,38.20
2018-05-27T16:56:25.760Z,38.76
2018-05-27T16:58:53.366Z,38.05
2018-05-27T17:01:20.959Z,38.65
2018-05-27T17:03:48.592Z,38.91
2018-05-27T17:06:16.196Z,39.15
2018-05-27T17:08:43.842Z,39.53
2018-05-27T17:11:11.431Z,39.40
2018-05-27T17:13:39.033Z,39.88
2018-05-27T17:16:06.675Z,40.48
2018-05-27T17:18:34.273Z,40.31
2018-05-27T17:21:01.888Z,40.50
2018-05-27T17:23:29.493Z,40.24
2018-05-27T17:25:57.137Z,40.44
2018-05-27T17:28:24.757Z,41.49
2018-05-27T17:30:52.359Z,40.83
2018-05-27T17:33:20.043Z,40.57
2018-05-27T17:35:47.651Z,40.56
2018-05-27T17:38:15.286Z,40.58
2018-05-27T17:40:42.886Z,40.75
2018-05-27T17:43:10.530Z,40.91
2018-05-27T17:45:38.131Z,39.88
2018-05-27T17:48:13.938Z,40.52
2018-05-27T17:50:41.530Z,40.39
2018-05-27T17:53:09.136Z,40.01
2018-05-27T17:55:36.768Z,39.93
2018-05-27T17:58:04.935Z,40.31
2018-05-27T18:00:32.545Z,40.96
2018-05-27T18:03:00.163Z,41.26
2018-05-27T18:05:27.754Z,41.44
2018-05-27T18:07:55.634Z,41.47
2018-05-27T18:10:23.239Z,41.53
2018-05-27T18:12:50.834Z,41.61
2018-05-27T18:15:18.459Z,42.25
2018-05-27T18:17:46.059Z,42.70
2018-05-27T18:20:13.721Z,42.95
2018-05-27T18:22:41.316Z,43.51
2018-05-27T18:25:08.969Z,43.92
2018-05-27T18:27:36.657Z,44.43
2018-05-27T18:30:04.310Z,45.01
2018-05-27T18:32:31.916Z,45.25
2018-05-27T18:34:59.525Z,45.95
2018-05-27T18:37:27.145Z,46.37
2018-05-27T18:39:54.757Z,47.02
2018-05-27T18:42:22.593Z,47.54
2018-05-27T18:44:50.199Z,45.17
2018-05-27T18:47:17.813Z,43.07
2018-05-27T18:49:45.451Z,42.82
2018-05-27T18:52:13.082Z,41.70
2018-05-27T18:54:40.903Z,41.40
2018-05-27T18:57:08.530Z,40.05
2018-05-27T18:59:36.127Z,46.87
2018-05-27T19:02:03.750Z,49.84
2018-05-27T19:04:31.382Z,53.64
2018-05-27T19:06:59.229Z,54.50
2018-05-27T19:09:27.022Z,55.23
2018-05-27T19:11:54.642Z,53.97
2018-05-27T19:14:22.270Z,55.04
2018-05-27T19:16:49.890Z,55.88
2018-05-27T19:19:17.746Z,60.16
2018-05-27T19:21:45.352Z,62.75
2018-05-27T19:24:12.962Z,63.65
2018-05-27T19:26:40.670Z,63.62
2018-05-27T19:29:08.271Z,63.49
2018-05-27T19:31:35.918Z,65.22
2018-05-27T19:34:03.543Z,65.96
2018-05-27T19:36:31.483Z,68.52
2018-05-27T19:38:59.086Z,69.17
2018-05-27T19:41:26.685Z,69.51
2018-05-27T19:43:54.306Z,70.53
2018-05-27T19:46:21.932Z,70.22
2018-05-27T19:48:49.545Z,69.50
2018-05-27T19:51:17.156Z,68.47
2018-05-27T19:53:44.907Z,68.89
2018-05-27T19:56:12.510Z,69.14
2018-05-27T19:58:40.111Z,69.07
2018-05-27T20:01:07.738Z,68.89
2018-05-27T20:03:35.343Z,68.50
2018-05-27T20:06:03.079Z,68.21
2018-05-27T20:08:30.733Z,67.96
2018-05-27T20:10:58.379Z,69.20
2018-05-27T20:13:26.010Z,70.21
2018-05-27T20:15:54.227Z,70.45
2018-05-27T20:18:21.863Z,70.78
2018-05-27T20:20:49.475Z,71.57
2018-05-27T20:23:17.111Z,72.59
2018-05-27T20:25:44.727Z,72.09
2018-05-27T20:28:12.347Z,72.72
2018-05-27T20:30:39.949Z,71.05
2018-05-27T20:33:07.807Z,70.86
2018-05-27T20:35:35.404Z,71.67
2018-05-27T20:38:03.052Z,71.41
2018-05-27T20:40:30.679Z,71.80
2018-05-27T20:42:58.296Z,72.63
2018-05-27T20:45:25.916Z,72.96
2018-05-27T20:47:53.538Z,73.33
2018-05-27T20:50:21.161Z,73.24
2018-05-27T20:52:48.759Z,73.33
2018-05-27T20:55:16.390Z,73.93
2018-05-27T20:57:44.020Z,74.02
2018-05-27T21:00:11.618Z,74.65
2018-05-27T21:02:39.260Z,74.57
2018-05-27T21:05:06.859Z,74.48
2018-05-27T21:07:34.509Z,74.48
2018-05-27T21:10:02.131Z,75.43
2018-05-27T21:12:29.735Z,76.04
2018-05-27T21:14:57.366Z,76.52
2018-05-27T21:17:24.963Z,76.45
2018-05-27T21:19:52.604Z,75.92
2018-05-27T21:22:20.343Z,75.84
2018-05-27T21:24:47.943Z,75.22
2018-05-27T21:27:15.571Z,74.55
2018-05-27T21:29:43.251Z,74.90
2018-05-27T21:32:10.907Z,75.38
2018-05-27T21:34:38.567Z,75.63
2018-05-27T21:37:06.226Z,75.37
2018-05-27T21:39:33.848Z,75.79
2018-05-27T21:42:01.572Z,75.46
2018-05-27T21:44:29.309Z,74.87
2018-05-27T21:46:56.911Z,74.09
2018-05-27T21:49:24.533Z,73.63
2018-05-27T21:51:52.121Z,73.71
2018-05-27T21:54:19.747Z,74.25
2018-05-27T21:56:47.354Z,74.87
2018-05-27T21:59:15.385Z,76.19
2018-05-27T22:01:43.008Z,76.38
2018-05-27T22:04:10.700Z,76.01
2018-05-27T22:06:38.327Z,76.08
2018-05-27T22:09:05.932Z,75.39
2018-05-27T22:11:33.618Z,75.22
2018-05-27T22:14:01.244Z,74.97
2018-05-27T22:16:29.013Z,75.44
2018-05-27T22:18:56.610Z,75.30
2018-05-27T22:30:11.367Z,76.62
2018-05-27T22:32:38.982Z,76.96
2018-05-27T22:35:06.612Z,77.22
2018-05-27T22:37:34.214Z,77.35
2018-05-27T22:40:01.844Z,77.40
2018-05-27T22:42:29.445Z,77.50
2018-05-27T22:44:57.263Z,77.58
2018-05-27T22:47:24.858Z,77.84
2018-05-27T22:49:52.471Z,78.12
2018-05-27T22:52:20.097Z,78.61
2018-05-27T22:54:47.695Z,78.71
2018-05-27T22:57:15.317Z,78.55
2018-05-27T22:59:42.929Z,78.87
2018-05-27T23:02:10.567Z,79.32
2018-05-27T23:04:38.161Z,79.01
2018-05-27T23:07:05.937Z,78.96
2018-05-27T23:09:33.564Z,79.29
2018-05-27T23:12:01.174Z,79.46
2018-05-27T23:14:28.790Z,79.33
2018-05-27T23:16:56.401Z,79.22
2018-05-27T23:19:24.023Z,79.33
2018-05-27T23:21:51.621Z,79.74
2018-05-27T23:24:19.472Z,80.11
2018-05-27T23:26:47.109Z,80.22
2018-05-27T23:29:14.708Z,80.38
2018-05-27T23:31:42.451Z,80.58
2018-05-27T23:34:10.060Z,80.36
2018-05-27T23:36:37.691Z,80.06
2018-05-27T23:39:06.551Z,80.15
2018-05-27T23:41:34.336Z,79.77
2018-05-27T23:44:01.946Z,79.50
2018-05-27T23:46:29.554Z,78.19
2018-05-27T23:48:57.202Z,78.14
2018-05-27T23:51:24.815Z,78.44
2018-05-27T23:53:52.473Z,78.15
2018-05-27T23:56:20.074Z,77.80
2018-05-27T23:58:48.069Z,76.76
